createdAt,value
2023-02-22T00:00:00.132Z, 2.8
2023-02-22T00:02:00.138Z, 2.7
2023-02-22T00:04:00.107Z, 2.8
2023-02-22T00:06:00.115Z, 3
2023-02-22T00:08:00.132Z, 2.9
2023-02-22T00:10:00.158Z, 2.6
2023-02-22T00:12:00.123Z, 2.5
2023-02-22T00:14:00.074Z, 2.4
2023-02-22T00:16:00.167Z, 2.3
2023-02-22T00:18:00.065Z, 2.3
2023-02-22T00:20:00.073Z, 2.3
2023-02-22T00:22:00.152Z, 2.3
2023-02-22T00:24:00.059Z, 2.4
2023-02-22T00:26:00.093Z, 2.5
2023-02-22T00:28:00.066Z, 2.5
2023-02-22T00:30:00.052Z, 2.5
2023-02-22T00:32:00.169Z, 2.5
2023-02-22T00:34:00.061Z, 2.4
2023-02-22T00:36:00.052Z, 2.5
2023-02-22T00:38:00.052Z, 2.5
2023-02-22T00:40:00.061Z, 2.6
2023-02-22T00:42:00.117Z, 2.5
2023-02-22T00:44:00.124Z, 2.4
2023-02-22T00:46:00.167Z, 2.4
2023-02-22T00:48:00.109Z, 2.3
2023-02-22T00:50:00.147Z, 2.2
2023-02-22T00:52:00.111Z, 2
2023-02-22T00:54:00.100Z, 1.8
2023-02-22T00:56:00.116Z, 1.7
2023-02-22T00:58:00.124Z, 1.8
2023-02-22T01:00:00.236Z, 2.2
2023-02-22T01:02:00.182Z, 2.3
2023-02-22T01:04:00.135Z, 2.3
2023-02-22T01:06:00.121Z, 2.1
2023-02-22T01:08:00.127Z, 1.9
2023-02-22T01:10:00.135Z, 1.7
2023-02-22T01:12:00.136Z, 1.7
2023-02-22T01:14:00.069Z, 1.6
2023-02-22T01:16:00.118Z, 1.7
2023-02-22T01:18:00.064Z, 1.8
2023-02-22T01:20:00.092Z, 1.9
2023-02-22T01:22:00.508Z, 2.1
2023-02-22T01:24:00.070Z, 2.1
2023-02-22T01:26:00.059Z, 2
2023-02-22T01:28:00.075Z, 1.9
2023-02-22T01:30:00.256Z, 1.7
2023-02-22T01:32:00.123Z, 1.7
2023-02-22T01:34:00.106Z, 1.7
2023-02-22T01:36:00.183Z, 1.7
2023-02-22T01:38:00.046Z, 1.8
2023-02-22T01:40:00.045Z, 1.8
2023-02-22T01:42:00.091Z, 1.9
2023-02-22T01:44:00.108Z, 1.8
2023-02-22T01:46:00.174Z, 1.7
2023-02-22T01:48:00.138Z, 1.6
2023-02-22T01:50:00.097Z, 1.5
2023-02-22T01:52:00.124Z, 1.5
2023-02-22T01:54:00.107Z, 1.6
2023-02-22T01:56:00.130Z, 1.5
2023-02-22T01:58:00.129Z, 1.4
2023-02-22T02:00:00.157Z, 1.3
2023-02-22T02:02:00.141Z, 1.4
2023-02-22T02:04:00.226Z, 1.4
2023-02-22T02:06:00.090Z, 1.5
2023-02-22T02:08:00.118Z, 1.5
2023-02-22T02:10:00.129Z, 1.3
2023-02-22T02:12:00.103Z, 1.3
2023-02-22T02:14:00.097Z, 1.3
2023-02-22T02:16:00.058Z, 1.1
2023-02-22T02:18:00.100Z, 1.1
2023-02-22T02:20:00.115Z, 1.2
2023-02-22T02:22:00.085Z, 1.2
2023-02-22T02:24:00.054Z, 1.2
2023-02-22T02:26:00.055Z, 1.2
2023-02-22T02:28:00.091Z, 1.2
2023-02-22T02:30:00.052Z, 1.1
2023-02-22T02:32:00.224Z, 1.1
2023-02-22T02:34:00.103Z, 1.1
2023-02-22T02:36:00.106Z, 1
2023-02-22T02:38:00.049Z, 1
2023-02-22T02:40:00.111Z, 1
2023-02-22T02:42:00.058Z, 1
2023-02-22T02:44:00.120Z, 0.9
2023-02-22T02:46:00.096Z, 0.9
2023-02-22T02:48:00.132Z, 0.9
2023-02-22T02:50:00.130Z, 0.8
2023-02-22T02:52:00.125Z, 1
2023-02-22T02:54:00.125Z, 1
2023-02-22T02:56:00.108Z, 1
2023-02-22T02:58:00.106Z, 1
2023-02-22T03:00:00.165Z, 1
2023-02-22T03:02:00.150Z, 1
2023-02-22T03:04:00.100Z, 0.9
2023-02-22T03:06:00.112Z, 0.8
2023-02-22T03:08:00.117Z, 0.8
2023-02-22T03:10:00.144Z, 0.8
2023-02-22T03:12:00.401Z, 0.9
2023-02-22T03:14:00.055Z, 0.8
2023-02-22T03:16:00.122Z, 0.8
2023-02-22T03:18:00.043Z, 0.9
2023-02-22T03:20:00.031Z, 1
2023-02-22T03:22:00.071Z, 1.2
2023-02-22T03:24:00.095Z, 1.3
2023-02-22T03:26:00.056Z, 1.4
2023-02-22T03:28:00.097Z, 1.4
2023-02-22T03:30:00.056Z, 1.4
2023-02-22T03:32:00.075Z, 1.5
2023-02-22T03:34:00.038Z, 1.6
2023-02-22T03:36:00.055Z, 1.6
2023-02-22T03:38:00.048Z, 1.7
2023-02-22T03:40:00.060Z, 1.7
2023-02-22T03:42:00.063Z, 1.7
2023-02-22T03:44:00.114Z, 1.7
2023-02-22T03:46:00.232Z, 1.7
2023-02-22T03:48:00.117Z, 1.7
2023-02-22T03:50:00.154Z, 1.7
2023-02-22T03:52:00.131Z, 1.7
2023-02-22T03:54:00.132Z, 1.7
2023-02-22T03:56:00.112Z, 1.6
2023-02-22T03:58:00.117Z, 1.6
2023-02-22T04:00:00.127Z, 1.5
2023-02-22T04:02:00.124Z, 1.5
2023-02-22T04:04:00.118Z, 1.5
2023-02-22T04:06:00.117Z, 1.6
2023-02-22T04:08:00.109Z, 1.6
2023-02-22T04:10:00.174Z, 1.6
2023-02-22T04:12:00.164Z, 1.7
2023-02-22T04:14:00.075Z, 1.9
2023-02-22T04:16:00.063Z, 2
2023-02-22T04:18:00.071Z, 2.2
2023-02-22T04:20:00.049Z, 2.3
2023-02-22T04:22:00.050Z, 2.4
2023-02-22T04:24:00.133Z, 2.5
2023-02-22T04:26:00.036Z, 2.4
2023-02-22T04:28:00.062Z, 2.3
2023-02-22T04:30:00.039Z, 2.2
2023-02-22T04:32:00.167Z, 2.2
2023-02-22T04:34:00.052Z, 2.3
2023-02-22T04:36:00.044Z, 2.4
2023-02-22T04:38:00.054Z, 2.4
2023-02-22T04:40:00.058Z, 2.4
2023-02-22T04:42:00.108Z, 2.2
2023-02-22T04:44:00.169Z, 2.2
2023-02-22T04:46:00.105Z, 2.1
2023-02-22T04:48:00.130Z, 2
2023-02-22T04:50:00.107Z, 1.9
2023-02-22T04:52:00.132Z, 1.7
2023-02-22T04:54:00.101Z, 1.8
2023-02-22T04:56:00.133Z, 2
2023-02-22T04:58:00.118Z, 2.1
2023-02-22T05:00:00.131Z, 2.2
2023-02-22T05:02:00.111Z, 2.2
2023-02-22T05:04:00.096Z, 2.3
2023-02-22T05:06:00.124Z, 2.4
2023-02-22T05:08:00.111Z, 2.4
2023-02-22T05:10:00.138Z, 2.3
2023-02-22T05:12:00.121Z, 2.2
2023-02-22T05:14:00.062Z, 2.3
2023-02-22T05:16:00.124Z, 2.3
2023-02-22T05:18:00.102Z, 2.2
2023-02-22T05:20:00.040Z, 2.1
2023-02-22T05:22:00.042Z, 2
2023-02-22T05:24:00.050Z, 1.9
2023-02-22T05:26:00.031Z, 1.9
2023-02-22T05:28:00.019Z, 1.9
2023-02-22T05:30:00.041Z, 2
2023-02-22T05:32:00.303Z, 2
2023-02-22T05:34:00.254Z, 1.9
2023-02-22T05:36:00.185Z, 1.9
2023-02-22T05:38:00.319Z, 1.8
2023-02-22T05:40:00.102Z, 1.7
2023-02-22T05:42:00.060Z, 1.7
2023-02-22T05:44:00.185Z, 1.9
2023-02-22T05:46:00.114Z, 1.8
2023-02-22T05:48:00.125Z, 1.6
2023-02-22T05:50:00.140Z, 1.5
2023-02-22T05:52:00.124Z, 1.6
2023-02-22T05:54:00.101Z, 1.7
2023-02-22T05:56:00.092Z, 1.5
2023-02-22T05:58:00.134Z, 1.7
2023-02-22T06:00:00.140Z, 1.7
2023-02-22T06:02:00.222Z, 1.6
2023-02-22T06:04:00.134Z, 1.5
2023-02-22T06:06:00.106Z, 1.6
2023-02-22T06:08:00.112Z, 1.6
2023-02-22T06:10:00.129Z, 1.7
2023-02-22T06:12:00.145Z, 1.5
2023-02-22T06:14:00.085Z, 1.7
2023-02-22T06:16:00.088Z, 1.7
2023-02-22T06:18:00.065Z, 1.5
2023-02-22T06:20:00.095Z, 1.5
2023-02-22T06:22:00.112Z, 1.5
2023-02-22T06:24:00.049Z, 1.6
2023-02-22T06:26:00.220Z, 1.8
2023-02-22T06:28:00.328Z, 2
2023-02-22T06:30:00.399Z, 2
2023-02-22T06:32:00.441Z, 2.2
2023-02-22T06:34:00.241Z, 2.3
2023-02-22T06:36:00.103Z, 2.2
2023-02-22T06:38:00.051Z, 2.1
2023-02-22T06:40:04.890Z, 1.9
2023-02-22T06:42:00.133Z, 1.7
2023-02-22T06:44:00.117Z, 1.5
2023-02-22T06:46:00.133Z, 1.4
2023-02-22T06:48:00.094Z, 1.5
2023-02-22T06:50:00.108Z, 1.5
2023-02-22T06:52:00.113Z, 1.5
2023-02-22T06:54:00.081Z, 1.5
2023-02-22T06:56:00.125Z, 1.5
2023-02-22T06:58:00.131Z, 1.5
2023-02-22T07:00:00.119Z, 1.6
2023-02-22T07:02:00.120Z, 1.7
2023-02-22T07:04:00.120Z, 1.8
2023-02-22T07:06:00.113Z, 1.9
2023-02-22T07:08:00.113Z, 1.7
2023-02-22T07:10:00.119Z, 1.6
2023-02-22T07:12:00.110Z, 1.6
2023-02-22T07:14:00.068Z, 1.6
2023-02-22T07:16:00.146Z, 1.7
2023-02-22T07:18:00.070Z, 1.7
2023-02-22T07:20:00.068Z, 1.7
2023-02-22T07:22:00.050Z, 1.7
2023-02-22T07:24:00.058Z, 1.7
2023-02-22T07:26:00.056Z, 1.8
2023-02-22T07:28:00.041Z, 2
2023-02-22T07:30:00.043Z, 2.1
2023-02-22T07:32:00.126Z, 2.2
2023-02-22T07:34:00.048Z, 2.4
2023-02-22T07:36:00.066Z, 2.4
2023-02-22T07:38:00.045Z, 1.9
2023-02-22T07:40:00.083Z, 1.7
2023-02-22T07:42:00.023Z, 1.6
2023-02-22T07:44:00.146Z, 1.4
2023-02-22T07:46:00.182Z, 1.4
2023-02-22T07:48:00.171Z, 1.5
2023-02-22T07:50:00.191Z, 1.6
2023-02-22T07:52:00.156Z, 1.7
2023-02-22T07:54:00.208Z, 1.9
2023-02-22T07:56:00.158Z, 2
2023-02-22T07:58:00.146Z, 1.9
2023-02-22T08:00:00.151Z, 1.9
2023-02-22T08:02:00.174Z, 2.1
2023-02-22T08:04:00.290Z, 2.2
2023-02-22T08:06:00.148Z, 2.4
2023-02-22T08:08:00.144Z, 2.7
2023-02-22T08:10:00.169Z, 2.6
2023-02-22T08:12:00.158Z, 2.7
2023-02-22T08:14:00.057Z, 2.7
2023-02-22T08:16:00.045Z, 2.9
2023-02-22T08:18:00.049Z, 2.9
2023-02-22T08:20:00.039Z, 2.9
2023-02-22T08:22:00.054Z, 2.6
2023-02-22T08:24:00.054Z, 2.5
2023-02-22T08:26:00.058Z, 2.3
2023-02-22T08:28:00.098Z, 2.1
2023-02-22T08:30:00.051Z, 2.1
2023-02-22T08:32:00.237Z, 1.9
2023-02-22T08:34:00.032Z, 1.8
2023-02-22T08:36:00.094Z, 1.9
2023-02-22T08:38:00.061Z, 2
2023-02-22T08:40:00.045Z, 2.2
2023-02-22T08:42:00.049Z, 2.4
2023-02-22T08:44:00.199Z, 2.5
2023-02-22T08:46:00.282Z, 2.3
2023-02-22T08:48:00.137Z, 2.3
2023-02-22T08:50:00.121Z, 2.2
2023-02-22T08:52:00.129Z, 2.2
2023-02-22T08:54:00.191Z, 2.3
2023-02-22T08:56:00.124Z, 2.6
2023-02-22T08:58:00.131Z, 2.6
2023-02-22T09:00:00.130Z, 2.7
2023-02-22T09:02:00.342Z, 2.7
2023-02-22T09:04:00.275Z, 2.7
2023-02-22T09:06:00.198Z, 2.7
2023-02-22T09:08:00.187Z, 2.7
2023-02-22T09:10:00.128Z, 2.6
2023-02-22T09:12:00.525Z, 2.3
2023-02-22T09:14:00.103Z, 2.4
2023-02-22T09:16:00.157Z, 2.7
2023-02-22T09:18:00.069Z, 3.2
2023-02-22T09:20:00.078Z, 3.3
2023-02-22T09:22:00.129Z, 3.5
2023-02-22T09:24:00.085Z, 3.4
2023-02-22T09:26:00.053Z, 3.4
2023-02-22T09:28:00.083Z, 3
2023-02-22T09:30:00.061Z, 3.1
2023-02-22T09:32:00.285Z, 3.3
2023-02-22T09:34:00.575Z, 3.6
2023-02-22T09:36:00.050Z, 3.8
2023-02-22T09:38:00.101Z, 3.7
2023-02-22T09:40:00.197Z, 3.7
2023-02-22T09:42:00.039Z, 3.7
2023-02-22T09:44:00.203Z, 3.7
2023-02-22T09:46:00.200Z, 3.7
2023-02-22T09:48:08.081Z, 3.8
2023-02-22T09:50:00.156Z, 3.8
2023-02-22T09:52:00.124Z, 3.8
2023-02-22T09:54:00.099Z, 3.8
2023-02-22T09:56:00.117Z, 4
2023-02-22T09:58:00.276Z, 4
2023-02-22T10:00:00.170Z, 3.9
2023-02-22T10:02:00.161Z, 4
2023-02-22T10:04:00.183Z, 3.9
2023-02-22T10:06:00.115Z, 3.8
2023-02-22T10:08:00.103Z, 3.8
2023-02-22T10:10:00.130Z, 4.1
2023-02-22T10:12:00.110Z, 4.3
2023-02-22T10:14:00.122Z, 4.4
2023-02-22T10:16:00.091Z, 4.4
2023-02-22T10:18:00.066Z, 4.5
2023-02-22T10:20:00.118Z, 4.6
2023-02-22T10:22:00.074Z, 4.7
2023-02-22T10:24:00.072Z, 4.7
2023-02-22T10:26:00.049Z, 4.9
2023-02-22T10:28:00.049Z, 4.9
2023-02-22T10:30:00.071Z, 4.9
2023-02-22T10:32:00.266Z, 4.7
2023-02-22T10:34:00.058Z, 5
2023-02-22T10:36:00.098Z, 5
2023-02-22T10:38:00.048Z, 5.2
2023-02-22T10:40:00.059Z, 5
2023-02-22T10:42:00.069Z, 5.1
2023-02-22T10:44:00.109Z, 5.3
2023-02-22T10:46:00.197Z, 5.5
2023-02-22T10:48:00.112Z, 5.4
2023-02-22T10:50:00.130Z, 5.6
2023-02-22T10:52:00.228Z, 5.7
2023-02-22T10:54:00.123Z, 5.9
2023-02-22T10:56:00.216Z, 5.9
2023-02-22T10:58:00.126Z, 6
2023-02-22T11:00:00.155Z, 5.9
2023-02-22T11:02:00.109Z, 5.9
2023-02-22T11:04:00.113Z, 6
2023-02-22T11:06:00.104Z, 5.9
2023-02-22T11:08:00.136Z, 5.9
2023-02-22T11:10:00.146Z, 6
2023-02-22T11:12:00.099Z, 6
2023-02-22T11:14:00.067Z, 5.8
2023-02-22T11:16:00.119Z, 6.1
2023-02-22T11:18:00.096Z, 6
2023-02-22T11:20:00.101Z, 6.3
2023-02-22T11:22:00.092Z, 6
2023-02-22T11:24:00.092Z, 5.8
2023-02-22T11:26:00.105Z, 5.8
2023-02-22T11:28:00.055Z, 6.3
2023-02-22T11:30:00.060Z, 6.3
2023-02-22T11:32:00.081Z, 6.4
2023-02-22T11:34:00.144Z, 6.5
2023-02-22T11:36:00.094Z, 6.4
2023-02-22T11:38:00.052Z, 6.4
2023-02-22T11:40:00.053Z, 6.3
2023-02-22T11:42:00.056Z, 6.5
2023-02-22T11:44:00.098Z, 6.6
2023-02-22T11:46:02.002Z, 6.6
2023-02-22T11:48:00.108Z, 6.6
2023-02-22T11:50:00.116Z, 6.9
2023-02-22T11:52:00.099Z, 6.9
2023-02-22T11:54:00.142Z, 6.9
2023-02-22T11:56:00.158Z, 6.8
2023-02-22T11:58:00.111Z, 6.9
2023-02-22T12:00:00.115Z, 6.8
2023-02-22T12:02:00.227Z, 6.5
2023-02-22T12:04:00.265Z, 6.6
2023-02-22T12:06:00.175Z, 7.1
2023-02-22T12:08:05.256Z, 7.1
2023-02-22T12:10:00.157Z, 7
2023-02-22T12:12:00.153Z, 7
2023-02-22T12:14:00.130Z, 7.2
2023-02-22T12:16:00.173Z, 7
2023-02-22T12:18:00.598Z, 6.8
2023-02-22T12:20:00.047Z, 6.6
2023-02-22T12:22:00.048Z, 6.7
2023-02-22T12:24:00.058Z, 7
2023-02-22T12:26:00.067Z, 7
2023-02-22T12:28:00.106Z, 6.9
2023-02-22T12:30:00.051Z, 7
2023-02-22T12:32:00.085Z, 6.8
2023-02-22T12:34:00.176Z, 6.8
2023-02-22T12:36:00.070Z, 6.7
2023-02-22T12:38:00.078Z, 6.7
2023-02-22T12:40:00.088Z, 6.8
2023-02-22T12:42:00.068Z, 6.9
2023-02-22T12:44:00.119Z, 7
2023-02-22T12:46:00.269Z, 7
2023-02-22T12:48:00.109Z, 7
2023-02-22T12:50:00.147Z, 7.2
2023-02-22T12:52:03.081Z, 7.1
2023-02-22T12:54:00.105Z, 7.3
2023-02-22T12:56:00.119Z, 7.4
2023-02-22T12:58:00.133Z, 7.5
2023-02-22T13:00:00.148Z, 7.4
2023-02-22T13:02:00.330Z, 7.5
2023-02-22T13:04:08.580Z, 7.6
2023-02-22T13:06:00.126Z, 7.8
2023-02-22T13:08:00.134Z, 8
2023-02-22T13:10:00.161Z, 7.7
2023-02-22T13:12:00.142Z, 7.9
2023-02-22T13:14:00.109Z, 7.8
2023-02-22T13:16:00.190Z, 7.9
2023-02-22T13:18:01.759Z, 7.9
2023-02-22T13:20:00.045Z, 7.9
2023-02-22T13:22:00.057Z, 8
2023-02-22T13:24:00.054Z, 8
2023-02-22T13:26:00.049Z, 8.1
2023-02-22T13:28:00.072Z, 8.1
2023-02-22T13:30:00.093Z, 7.8
2023-02-22T13:32:00.178Z, 7.5
2023-02-22T13:34:00.054Z, 7.4
2023-02-22T13:36:00.041Z, 7.3
2023-02-22T13:38:00.040Z, 7.5
2023-02-22T13:40:00.130Z, 7.6
2023-02-22T13:42:00.049Z, 7.6
2023-02-22T13:44:00.108Z, 7.7
2023-02-22T13:46:05.179Z, 7.6
2023-02-22T13:48:00.110Z, 7.6
2023-02-22T13:50:00.118Z, 7.9
2023-02-22T13:52:00.141Z, 7.9
2023-02-22T13:54:00.112Z, 7.8
2023-02-22T13:56:00.117Z, 7.9
2023-02-22T13:58:00.127Z, 7.9
2023-02-22T14:00:00.118Z, 8.1
2023-02-22T14:02:00.200Z, 8.1
2023-02-22T14:04:00.097Z, 8.5
2023-02-22T14:06:00.097Z, 8.6
2023-02-22T14:08:00.094Z, 8.2
2023-02-22T14:10:00.129Z, 8.1
2023-02-22T14:12:00.102Z, 8.3
2023-02-22T14:14:00.060Z, 8.4
2023-02-22T14:16:00.341Z, 8
2023-02-22T14:18:00.116Z, 8.1
2023-02-22T14:20:00.067Z, 8.1
2023-02-22T14:22:00.065Z, 8.1
2023-02-22T14:24:00.117Z, 8.1
2023-02-22T14:26:00.234Z, 8
2023-02-22T14:28:00.338Z, 8.1
2023-02-22T14:30:00.269Z, 8.1
2023-02-22T14:32:00.440Z, 8
2023-02-22T14:34:00.070Z, 8.2
2023-02-22T14:36:00.104Z, 8.4
2023-02-22T14:38:00.069Z, 8.6
2023-02-22T14:40:00.099Z, 8.7
2023-02-22T14:42:00.048Z, 8.7
2023-02-22T14:44:00.082Z, 8.7
2023-02-22T14:46:00.191Z, 8.6
2023-02-22T14:48:00.101Z, 8.7
2023-02-22T14:50:00.102Z, 8.7
2023-02-22T14:52:00.111Z, 8.9
2023-02-22T14:54:00.141Z, 9
2023-02-22T14:56:00.115Z, 8.9
2023-02-22T14:58:00.124Z, 9
2023-02-22T15:00:00.123Z, 9.2
2023-02-22T15:02:11.081Z, 8.9
2023-02-22T15:04:07.736Z, 8.6
2023-02-22T15:06:00.122Z, 8.5
2023-02-22T15:08:00.112Z, 8.7
2023-02-22T15:10:00.110Z, 8.7
2023-02-22T15:12:00.103Z, 8.7
2023-02-22T15:14:00.093Z, 8.8
2023-02-22T15:16:01.828Z, 8.7
2023-02-22T15:18:00.084Z, 8.7
2023-02-22T15:20:00.039Z, 8.8
2023-02-22T15:22:00.064Z, 8.9
2023-02-22T15:24:00.038Z, 8.9
2023-02-22T15:26:00.034Z, 8.9
2023-02-22T15:28:00.019Z, 8.9
2023-02-22T15:30:00.061Z, 9
2023-02-22T15:32:00.066Z, 9.1
2023-02-22T15:34:00.055Z, 9.1
2023-02-22T15:36:00.040Z, 9.1
2023-02-22T15:38:00.049Z, 9.2
2023-02-22T15:40:00.051Z, 9.2
2023-02-22T15:42:00.099Z, 9.1
2023-02-22T15:44:03.439Z, 8.6
2023-02-22T15:46:00.258Z, 8.3
2023-02-22T15:48:00.130Z, 7.8
2023-02-22T15:50:00.200Z, 7.6
2023-02-22T15:52:00.095Z, 7.6
2023-02-22T15:54:00.102Z, 7.3
2023-02-22T15:56:00.113Z, 7.1
2023-02-22T15:58:00.137Z, 7.2
2023-02-22T16:00:00.172Z, 7
2023-02-22T16:02:00.439Z, 7
2023-02-22T16:04:00.165Z, 7
2023-02-22T16:06:00.161Z, 7.5
2023-02-22T16:08:00.100Z, 8.3
2023-02-22T16:10:00.236Z, 8.3
2023-02-22T16:12:00.116Z, 8.4
2023-02-22T16:14:00.057Z, 8.3
2023-02-22T16:16:00.050Z, 8.4
2023-02-22T16:18:02.524Z, 8.6
2023-02-22T16:20:00.045Z, 8.8
2023-02-22T16:22:00.058Z, 8.7
2023-02-22T16:24:13.936Z, 8.8
2023-02-22T16:26:00.037Z, 8.9
2023-02-22T16:28:00.030Z, 8.9
2023-02-22T16:30:00.045Z, 8.8
2023-02-22T16:32:00.152Z, 8.8
2023-02-22T16:34:00.052Z, 8.8
2023-02-22T16:36:00.049Z, 8.7
2023-02-22T16:38:00.053Z, 8.7
2023-02-22T16:40:00.056Z, 8.8
2023-02-22T16:42:00.060Z, 8.7
2023-02-22T16:44:00.126Z, 8.7
2023-02-22T16:46:00.121Z, 8.7
2023-02-22T16:48:00.092Z, 8.8
2023-02-22T16:50:00.127Z, 8.8
2023-02-22T16:52:00.108Z, 8.7
2023-02-22T16:54:00.124Z, 8.5
2023-02-22T16:56:00.125Z, 8.5
2023-02-22T16:58:00.392Z, 8.4
2023-02-22T17:00:00.148Z, 8.2
2023-02-22T17:02:00.354Z, 7.9
2023-02-22T17:04:00.250Z, 7.6
2023-02-22T17:06:00.389Z, 7.4
2023-02-22T17:08:00.517Z, 7.2
2023-02-22T17:10:00.160Z, 7.2
2023-02-22T17:12:00.129Z, 7.1
2023-02-22T17:14:00.077Z, 7.1
2023-02-22T17:16:00.111Z, 7.2
2023-02-22T17:18:00.089Z, 7.1
2023-02-22T17:20:00.093Z, 7.1
2023-02-22T17:22:00.060Z, 7
2023-02-22T17:24:00.050Z, 7
2023-02-22T17:26:00.058Z, 6.9
2023-02-22T17:28:00.037Z, 6.9
2023-02-22T17:30:00.050Z, 6.8
2023-02-22T17:32:00.111Z, 6.8
2023-02-22T17:34:00.053Z, 6.8
2023-02-22T17:36:00.041Z, 6.8
2023-02-22T17:38:00.040Z, 6.8
2023-02-22T17:40:00.039Z, 6.8
2023-02-22T17:42:00.033Z, 6.8
2023-02-22T17:44:00.127Z, 6.9
2023-02-22T17:46:00.209Z, 6.8
2023-02-22T17:48:00.131Z, 6.9
2023-02-22T17:50:00.153Z, 6.8
2023-02-22T17:52:00.126Z, 6.8
2023-02-22T17:54:00.115Z, 6.8
2023-02-22T17:56:00.142Z, 6.8
2023-02-22T17:58:00.139Z, 6.8
2023-02-22T18:00:00.134Z, 6.8
2023-02-22T18:02:00.224Z, 6.9
2023-02-22T18:04:00.104Z, 6.9
2023-02-22T18:06:00.104Z, 6.8
2023-02-22T18:08:00.139Z, 6.9
2023-02-22T18:10:00.181Z, 6.8
2023-02-22T18:12:00.113Z, 6.8
2023-02-22T18:14:00.065Z, 6.9
2023-02-22T18:16:00.567Z, 6.9
2023-02-22T18:18:00.103Z, 6.9
2023-02-22T18:20:00.070Z, 7
2023-02-22T18:22:00.061Z, 7
2023-02-22T18:24:00.096Z, 6.9
2023-02-22T18:26:10.531Z, 6.9
2023-02-22T18:28:00.038Z, 6.9
2023-02-22T18:30:00.053Z, 7
2023-02-22T18:32:00.087Z, 6.9
2023-02-22T18:34:00.060Z, 6.9
2023-02-22T18:36:00.124Z, 6.9
2023-02-22T18:38:00.060Z, 6.8
2023-02-22T18:40:00.078Z, 6.8
2023-02-22T18:42:00.056Z, 6.8
2023-02-22T18:44:00.150Z, 6.8
2023-02-22T18:46:00.102Z, 6.8
2023-02-22T18:48:00.114Z, 6.8
2023-02-22T18:50:00.138Z, 6.8
2023-02-22T18:52:00.132Z, 6.8
2023-02-22T18:54:00.650Z, 6.8
2023-02-22T18:56:00.138Z, 6.7
2023-02-22T18:58:00.137Z, 6.7
2023-02-22T19:00:00.174Z, 6.8
2023-02-22T19:02:00.198Z, 6.6
2023-02-22T19:04:00.101Z, 6.5
2023-02-22T19:06:00.116Z, 6.5
2023-02-22T19:08:00.099Z, 6.6
2023-02-22T19:10:00.125Z, 6.6
2023-02-22T19:12:00.105Z, 6.7
2023-02-22T19:14:00.047Z, 6.6
2023-02-22T19:16:00.124Z, 6.6
2023-02-22T19:18:00.040Z, 6.6
2023-02-22T19:20:00.014Z, 6.6
2023-02-22T19:22:00.094Z, 6.5
2023-02-22T19:24:00.035Z, 6.4
2023-02-22T19:26:00.038Z, 6.4
2023-02-22T19:28:00.034Z, 6.4
2023-02-22T19:30:00.052Z, 6.4
2023-02-22T19:32:00.147Z, 6.5
2023-02-22T19:34:00.032Z, 6.6
2023-02-22T19:36:00.034Z, 6.7
2023-02-22T19:38:00.027Z, 6.6
2023-02-22T19:40:00.057Z, 6.6
2023-02-22T19:42:00.033Z, 6.5
2023-02-22T19:44:00.104Z, 6.6
2023-02-22T19:46:00.217Z, 6.6
2023-02-22T19:48:00.105Z, 6.6
2023-02-22T19:50:00.423Z, 6.6
2023-02-22T19:52:00.110Z, 6.6
2023-02-22T19:54:00.086Z, 6.6
2023-02-22T19:56:00.110Z, 6.6
2023-02-22T19:58:00.201Z, 6.6
2023-02-22T20:00:00.252Z, 6.6
2023-02-22T20:02:00.107Z, 6.6
2023-02-22T20:04:00.270Z, 6.5
2023-02-22T20:06:00.117Z, 6.4
2023-02-22T20:08:00.124Z, 6.4
2023-02-22T20:10:00.108Z, 6.5
2023-02-22T20:12:00.117Z, 6.5
2023-02-22T20:14:00.076Z, 6.5
2023-02-22T20:16:00.046Z, 6.6
2023-02-22T20:18:00.070Z, 6.4
2023-02-22T20:20:00.052Z, 6.5
2023-02-22T20:22:00.045Z, 6.6
2023-02-22T20:24:00.066Z, 6.5
2023-02-22T20:26:00.043Z, 6.5
2023-02-22T20:28:00.037Z, 6.4
2023-02-22T20:30:00.039Z, 6.5
2023-02-22T20:32:00.278Z, 6.6
2023-02-22T20:34:00.219Z, 6.5
2023-02-22T20:42:00.053Z, 6.5
2023-02-22T20:44:00.091Z, 6.5
2023-02-22T20:46:00.180Z, 6.7
2023-02-22T20:48:00.114Z, 6.7
2023-02-22T20:50:00.187Z, 6.6
2023-02-22T20:52:00.104Z, 6.5
2023-02-22T20:54:00.200Z, 6.5
2023-02-22T20:56:00.117Z, 6.5
2023-02-22T20:58:00.165Z, 6.4
2023-02-22T21:00:00.106Z, 6.4
2023-02-22T21:02:00.123Z, 6.5
2023-02-22T21:04:00.116Z, 6.6
2023-02-22T21:06:00.127Z, 6.6
2023-02-22T21:12:22.287Z, 6.5
2023-02-22T21:14:00.111Z, 6.7
2023-02-22T21:16:00.056Z, 6.8
2023-02-22T21:18:00.109Z, 6.5
2023-02-22T21:20:00.054Z, 6.6
2023-02-22T21:22:00.092Z, 6.8
2023-02-22T21:24:00.052Z, 6.8
2023-02-22T21:26:00.085Z, 6.9
2023-02-22T21:28:00.114Z, 6.7
2023-02-22T21:30:00.112Z, 6.7
2023-02-22T21:32:00.599Z, 6.9
2023-02-22T21:34:00.048Z, 7
2023-02-22T21:36:00.162Z, 7
2023-02-22T21:38:00.097Z, 7.2
2023-02-22T21:40:00.038Z, 7.2
2023-02-22T21:42:00.096Z, 7.3
2023-02-22T21:44:00.153Z, 7.3
2023-02-22T21:46:00.185Z, 7.3
2023-02-22T21:48:00.111Z, 7.3
2023-02-22T21:50:00.202Z, 7.3
2023-02-22T21:52:00.114Z, 7.3
2023-02-22T21:54:00.112Z, 7.3
2023-02-22T21:56:00.370Z, 7.2
2023-02-22T21:58:00.123Z, 7.3
2023-02-22T22:00:00.150Z, 7.3
2023-02-22T22:02:00.144Z, 7.2
2023-02-22T22:04:00.689Z, 7.1
2023-02-22T22:06:00.220Z, 7.2
2023-02-22T22:08:00.115Z, 7.1
2023-02-22T22:10:00.135Z, 7.1
2023-02-22T22:12:00.157Z, 7.3
2023-02-22T22:14:00.058Z, 7.4
2023-02-22T22:16:00.156Z, 7.5
2023-02-22T22:18:00.057Z, 7.4
2023-02-22T22:20:00.065Z, 7.4
2023-02-22T22:22:00.096Z, 7.4
2023-02-22T22:24:00.048Z, 7.4
2023-02-22T22:26:00.275Z, 7.5
2023-02-22T22:28:00.023Z, 7.5
2023-02-22T22:30:00.047Z, 7.5
2023-02-22T22:32:00.212Z, 7.5
2023-02-22T22:34:00.076Z, 7.6
2023-02-22T22:36:00.166Z, 7.6
2023-02-22T22:38:00.095Z, 7.7
2023-02-22T22:40:00.151Z, 7.7
2023-02-22T22:42:00.057Z, 7.7
2023-02-22T22:44:00.108Z, 7.7
2023-02-22T22:46:00.234Z, 7.7
2023-02-22T22:48:00.105Z, 7.7
2023-02-22T22:50:00.115Z, 7.8
2023-02-22T22:52:00.121Z, 7.7
2023-02-22T22:54:00.120Z, 7.8
2023-02-22T22:56:00.107Z, 7.8
2023-02-22T22:58:00.125Z, 7.9
2023-02-22T23:00:00.136Z, 7.9
2023-02-22T23:02:00.098Z, 8
2023-02-22T23:04:01.925Z, 7.9
2023-02-22T23:06:00.108Z, 8
2023-02-22T23:08:00.102Z, 8.1
2023-02-22T23:10:00.136Z, 8
2023-02-22T23:12:00.096Z, 8.1
2023-02-22T23:14:00.100Z, 8.1
2023-02-22T23:16:00.194Z, 8
2023-02-22T23:18:00.047Z, 8.1
2023-02-22T23:20:00.050Z, 8.1
2023-02-22T23:22:00.053Z, 8.1
2023-02-22T23:24:00.096Z, 8.1
2023-02-22T23:26:00.101Z, 8.1
2023-02-22T23:28:00.027Z, 8.1
2023-02-22T23:30:00.081Z, 8.1
2023-02-22T23:32:00.183Z, 8
2023-02-22T23:34:00.082Z, 8.1
2023-02-22T23:36:00.040Z, 8.1
2023-02-22T23:38:00.034Z, 8.1
2023-02-22T23:40:00.046Z, 8.1
2023-02-22T23:42:00.042Z, 8.1
2023-02-22T23:44:00.096Z, 8.1
2023-02-22T23:46:00.137Z, 8.1
2023-02-22T23:48:00.134Z, 8.1
2023-02-22T23:50:00.133Z, 8.1
2023-02-22T23:52:00.119Z, 8.1
2023-02-22T23:54:00.139Z, 8.2
2023-02-22T23:56:00.099Z, 8.1
2023-02-22T23:58:00.127Z, 8.2
